createdAt,value
2018-06-11T00:01:45.650Z,13.00
2018-06-11T00:04:14.202Z,12.03
2018-06-11T00:06:42.692Z,14.20
2018-06-11T00:09:11.232Z,13.83
2018-06-11T00:11:39.741Z,33.10
2018-06-11T00:14:07.976Z,25.80
2018-06-11T00:16:36.532Z,17.33
2018-06-11T00:19:05.194Z,21.97
2018-06-11T00:21:34.081Z,33.40
2018-06-11T00:24:02.825Z,14.33
2018-06-11T00:26:31.353Z,24.97
2018-06-11T00:28:59.589Z,19.23
2018-06-11T00:31:28.081Z,14.33
2018-06-11T00:33:56.619Z,25.73
2018-06-11T00:36:25.142Z,18.40
2018-06-11T00:38:53.712Z,14.10
2018-06-11T00:41:22.202Z,14.70
2018-06-11T00:43:50.791Z,12.93
2018-06-11T00:46:19.350Z,13.70
2018-06-11T00:48:47.907Z,38.47
2018-06-11T00:51:16.426Z,33.47
2018-06-11T00:53:44.978Z,16.93
2018-06-11T00:56:13.826Z,19.40
2018-06-11T00:58:42.312Z,14.83
2018-06-11T01:01:10.835Z,19.47
2018-06-11T01:03:39.327Z,22.33
2018-06-11T01:06:07.856Z,15.97
2018-06-11T01:08:36.358Z,17.33
2018-06-11T01:11:04.915Z,17.90
2018-06-11T01:13:33.412Z,12.57
2018-06-11T01:16:01.939Z,11.47
2018-06-11T01:18:30.438Z,9.97
2018-06-11T01:20:59.116Z,11.97
2018-06-11T01:23:27.653Z,10.87
2018-06-11T01:25:56.181Z,12.30
2018-06-11T01:28:24.717Z,13.50
2018-06-11T01:30:53.264Z,9.97
2018-06-11T01:33:21.862Z,11.73
2018-06-11T01:35:50.478Z,10.23
2018-06-11T01:38:18.985Z,13.43
2018-06-11T01:40:47.523Z,11.50
2018-06-11T01:43:16.056Z,10.23
2018-06-11T01:45:44.616Z,14.30
2018-06-11T01:48:13.123Z,8.37
2018-06-11T01:50:41.689Z,10.97
2018-06-11T01:53:10.209Z,7.30
2018-06-11T01:55:38.754Z,8.87
2018-06-11T01:58:07.268Z,10.77
2018-06-11T02:00:35.810Z,9.10
2018-06-11T02:03:04.008Z,7.13
2018-06-11T02:05:32.575Z,10.60
2018-06-11T02:08:01.085Z,8.43
2018-06-11T02:10:29.797Z,10.00
2018-06-11T02:12:58.328Z,8.87
2018-06-11T02:15:26.871Z,10.63
2018-06-11T02:17:55.445Z,10.80
2018-06-11T02:20:24.048Z,8.10
2018-06-11T02:22:52.581Z,12.97
2018-06-11T02:25:21.106Z,12.83
2018-06-11T02:27:49.640Z,10.13
2018-06-11T02:30:18.181Z,12.53
2018-06-11T02:32:46.730Z,16.10
2018-06-11T02:35:15.273Z,14.00
2018-06-11T02:37:43.510Z,11.67
2018-06-11T02:40:12.042Z,14.67
2018-06-11T02:42:40.578Z,11.27
2018-06-11T02:45:09.094Z,11.70
2018-06-11T02:47:37.638Z,11.37
2018-06-11T02:50:06.645Z,12.60
2018-06-11T02:52:35.334Z,13.37
2018-06-11T02:55:03.902Z,19.60
2018-06-11T02:57:32.434Z,16.03
2018-06-11T03:00:00.954Z,14.93
2018-06-11T03:02:29.590Z,11.03
2018-06-11T03:04:58.100Z,9.40
2018-06-11T03:07:26.616Z,7.63
2018-06-11T03:09:55.149Z,7.90
2018-06-11T03:12:23.671Z,13.13
2018-06-11T03:14:52.218Z,7.83
2018-06-11T03:17:20.783Z,8.20
2018-06-11T03:19:49.326Z,6.80
2018-06-11T03:22:17.976Z,12.23
2018-06-11T03:24:46.526Z,7.90
2018-06-11T03:27:15.048Z,7.40
2018-06-11T03:29:43.580Z,10.90
2018-06-11T03:32:12.098Z,9.37
2018-06-11T03:34:40.634Z,8.30
2018-06-11T03:37:09.205Z,7.93
2018-06-11T03:39:37.738Z,9.70
2018-06-11T03:42:06.294Z,8.50
2018-06-11T03:44:34.812Z,9.30
2018-06-11T03:47:02.994Z,11.40
2018-06-11T03:49:31.542Z,12.30
2018-06-11T03:52:00.078Z,14.30
2018-06-11T03:54:28.641Z,9.00
2018-06-11T03:56:56.869Z,7.97
2018-06-11T03:59:25.426Z,10.23
2018-06-11T04:01:53.934Z,12.07
2018-06-11T04:04:22.479Z,9.73
2018-06-11T04:06:50.997Z,6.13
2018-06-11T04:09:19.502Z,8.40
2018-06-11T04:11:48.050Z,7.70
2018-06-11T04:14:16.575Z,6.73
2018-06-11T04:16:45.142Z,6.70
2018-06-11T04:19:13.678Z,6.07
2018-06-11T04:21:42.241Z,8.17
2018-06-11T04:24:10.741Z,6.70
2018-06-11T04:26:39.271Z,6.83
2018-06-11T04:29:07.820Z,7.10
2018-06-11T04:31:36.376Z,13.07
2018-06-11T04:34:04.577Z,7.10
2018-06-11T04:36:33.126Z,7.53
2018-06-11T04:39:01.642Z,6.20
2018-06-11T04:41:30.185Z,8.43
2018-06-11T04:43:58.705Z,6.77
2018-06-11T04:46:27.247Z,8.20
2018-06-11T04:48:55.760Z,8.40
2018-06-11T04:51:23.996Z,9.40
2018-06-11T04:53:52.513Z,8.37
2018-06-11T04:56:21.060Z,9.70
2018-06-11T04:58:49.588Z,11.87
2018-06-11T05:01:18.182Z,13.27
2018-06-11T05:03:46.701Z,10.20
2018-06-11T05:06:15.365Z,7.83
2018-06-11T05:08:43.904Z,10.70
2018-06-11T05:11:12.455Z,5.93
2018-06-11T05:13:40.968Z,9.67
2018-06-11T05:16:09.529Z,9.53
2018-06-11T05:18:38.047Z,17.33
2018-06-11T05:21:06.725Z,5.90
2018-06-11T05:23:35.355Z,6.77
2018-06-11T05:26:03.906Z,7.20
2018-06-11T05:28:32.475Z,6.80
2018-06-11T05:31:00.985Z,8.60
2018-06-11T05:33:29.530Z,6.50
2018-06-11T05:35:58.044Z,7.30
2018-06-11T05:38:26.706Z,13.60
2018-06-11T05:40:55.268Z,8.03
2018-06-11T05:43:23.823Z,8.37
2018-06-11T05:45:52.910Z,8.03
2018-06-11T05:48:21.622Z,8.43
2018-06-11T05:50:50.175Z,7.33
2018-06-11T05:53:18.713Z,7.00
2018-06-11T05:55:47.238Z,9.70
2018-06-11T05:58:15.810Z,10.67
2018-06-11T06:00:44.342Z,10.30
2018-06-11T06:03:12.889Z,11.03
2018-06-11T06:05:41.402Z,6.87
2018-06-11T06:08:09.968Z,8.40
2018-06-11T06:10:38.677Z,8.00
2018-06-11T06:13:07.443Z,9.40
2018-06-11T06:15:36.160Z,7.40
2018-06-11T06:18:04.771Z,9.50
2018-06-11T06:20:33.306Z,7.70
2018-06-11T06:23:01.853Z,10.23
2018-06-11T06:25:32.426Z,7.10
2018-06-11T06:28:00.975Z,7.73
2018-06-11T06:30:29.499Z,8.43
2018-06-11T06:32:58.017Z,10.80
2018-06-11T06:35:26.574Z,6.53
2018-06-11T06:37:55.099Z,10.50
2018-06-11T06:40:23.660Z,9.40
2018-06-11T06:42:52.182Z,7.83
2018-06-11T06:45:20.739Z,8.67
2018-06-11T06:47:48.961Z,10.47
2018-06-11T06:50:17.559Z,7.60
2018-06-11T06:52:46.185Z,17.50
2018-06-11T06:55:14.712Z,8.57
2018-06-11T06:57:43.230Z,10.40
2018-06-11T07:00:11.807Z,10.10
2018-06-11T07:02:40.475Z,8.90
2018-06-11T07:05:09.231Z,12.27
2018-06-11T07:07:37.873Z,14.33
2018-06-11T07:10:07.743Z,8.33
2018-06-11T07:12:37.995Z,9.70
2018-06-11T07:15:06.973Z,11.90
2018-06-11T07:17:37.046Z,15.83
2018-06-11T07:20:05.266Z,13.10
2018-06-11T07:22:33.862Z,10.70
2018-06-11T07:25:02.418Z,12.27
2018-06-11T07:27:31.022Z,9.57
2018-06-11T07:29:59.610Z,10.33
2018-06-11T07:32:28.150Z,9.63
2018-06-11T07:34:56.736Z,12.07
2018-06-11T07:37:25.271Z,9.70
2018-06-11T07:39:53.871Z,10.70
2018-06-11T07:42:22.457Z,8.67
2018-06-11T07:44:51.009Z,12.03
2018-06-11T07:47:19.618Z,15.00
2018-06-11T07:49:48.156Z,10.80
2018-06-11T07:52:16.724Z,10.60
2018-06-11T07:54:45.251Z,15.73
2018-06-11T07:57:13.807Z,10.20
2018-06-11T07:59:42.344Z,14.63
2018-06-11T08:02:10.899Z,7.93
2018-06-11T08:04:39.526Z,10.07
2018-06-11T08:07:08.075Z,12.50
2018-06-11T08:09:36.709Z,10.80
2018-06-11T08:12:04.959Z,7.30
2018-06-11T08:14:33.494Z,11.70
2018-06-11T08:17:02.193Z,9.90
2018-06-11T08:19:30.715Z,6.97
2018-06-11T08:21:59.260Z,7.40
2018-06-11T08:24:27.779Z,7.70
2018-06-11T08:26:56.331Z,9.13
2018-06-11T08:29:24.946Z,7.30
2018-06-11T08:31:53.501Z,8.83
2018-06-11T08:34:22.244Z,8.40
2018-06-11T08:36:50.798Z,9.10
2018-06-11T08:39:19.362Z,11.83
2018-06-11T08:41:47.888Z,5.60
2018-06-11T08:44:16.461Z,5.20
2018-06-11T08:46:44.982Z,4.73
2018-06-11T08:49:13.520Z,5.40
2018-06-11T08:51:42.092Z,7.80
2018-06-11T08:54:10.650Z,5.77
2018-06-11T08:56:39.209Z,13.50
2018-06-11T08:59:07.789Z,5.50
2018-06-11T09:01:36.327Z,6.07
2018-06-11T09:04:04.878Z,7.50
2018-06-11T09:06:33.472Z,4.97
2018-06-11T09:09:02.042Z,7.30
2018-06-11T09:11:30.660Z,16.97
2018-06-11T09:13:59.327Z,10.77
2018-06-11T09:16:27.874Z,5.80
2018-06-11T09:18:56.423Z,6.20
2018-06-11T09:21:24.975Z,9.07
2018-06-11T09:23:53.538Z,8.03
2018-06-11T09:26:22.071Z,3.90
2018-06-11T09:28:50.619Z,6.00
2018-06-11T09:31:19.169Z,7.80
2018-06-11T09:33:47.939Z,5.70
2018-06-11T09:36:16.493Z,4.77
2018-06-11T09:38:45.083Z,5.93
2018-06-11T09:41:13.624Z,8.40
2018-06-11T09:43:42.173Z,7.60
2018-06-11T09:46:10.720Z,11.90
2018-06-11T09:48:39.235Z,9.60
2018-06-11T09:51:07.975Z,11.30
2018-06-11T09:53:36.522Z,5.73
2018-06-11T09:56:05.089Z,6.93
2018-06-11T09:58:33.620Z,11.03
2018-06-11T10:01:02.164Z,9.03
2018-06-11T10:03:30.682Z,8.53
2018-06-11T10:05:59.221Z,10.03
2018-06-11T10:08:27.806Z,13.23
2018-06-11T10:10:56.366Z,13.50
2018-06-11T10:13:24.919Z,10.13
2018-06-11T10:15:53.465Z,19.33
2018-06-11T10:18:21.993Z,22.23
2018-06-11T10:20:50.798Z,11.70
2018-06-11T10:23:19.324Z,13.23
2018-06-11T10:25:48.048Z,12.90
2018-06-11T10:28:16.673Z,8.43
2018-06-11T10:30:45.217Z,15.10
2018-06-11T10:33:13.746Z,18.80
2018-06-11T10:35:42.289Z,20.53
2018-06-11T10:38:10.825Z,10.00
2018-06-11T10:40:39.378Z,18.90
2018-06-11T10:43:08.069Z,20.03
2018-06-11T10:45:36.634Z,19.90
2018-06-11T10:48:05.630Z,13.63
2018-06-11T10:50:34.257Z,16.10
2018-06-11T10:53:02.792Z,18.07
2018-06-11T10:55:31.309Z,14.37
2018-06-11T10:57:59.918Z,14.57
2018-06-11T11:00:28.448Z,19.23
2018-06-11T11:02:56.997Z,11.60
2018-06-11T11:05:25.545Z,16.53
2018-06-11T11:07:54.114Z,18.13
2018-06-11T11:10:22.632Z,14.27
2018-06-11T11:12:51.186Z,15.73
2018-06-11T11:15:19.915Z,11.63
2018-06-11T11:17:48.481Z,13.90
2018-06-11T11:20:17.082Z,17.23
2018-06-11T11:22:45.621Z,15.50
2018-06-11T11:25:14.153Z,11.47
2018-06-11T11:27:42.919Z,13.30
2018-06-11T11:30:11.446Z,17.30
2018-06-11T11:32:40.002Z,20.20
2018-06-11T11:35:08.529Z,15.50
2018-06-11T11:37:37.093Z,14.93
2018-06-11T11:40:05.668Z,14.53
2018-06-11T11:42:34.222Z,14.03
2018-06-11T11:45:02.741Z,17.77
2018-06-11T11:47:31.293Z,14.73
2018-06-11T11:49:59.844Z,16.67
2018-06-11T11:52:28.401Z,13.17
2018-06-11T11:54:56.987Z,12.90
2018-06-11T11:57:25.696Z,16.00
2018-06-11T11:59:54.214Z,18.73
2018-06-11T12:02:22.816Z,13.50
2018-06-11T12:04:51.351Z,8.73
2018-06-11T12:07:19.890Z,9.80
2018-06-11T12:09:48.428Z,13.47
2018-06-11T12:12:16.976Z,22.03
2018-06-11T12:14:45.491Z,9.87
2018-06-11T12:17:14.047Z,12.83
2018-06-11T12:19:42.851Z,18.33
2018-06-11T12:22:11.469Z,15.33
2018-06-11T12:24:39.990Z,14.00
2018-06-11T12:27:08.562Z,14.73
2018-06-11T12:29:37.279Z,11.80
2018-06-11T12:32:05.839Z,17.93
2018-06-11T12:34:34.383Z,16.10
2018-06-11T12:37:02.901Z,16.57
2018-06-11T12:39:31.465Z,16.20
2018-06-11T12:42:00.010Z,25.07
2018-06-11T12:44:28.583Z,12.77
2018-06-11T12:46:57.169Z,23.67
2018-06-11T12:49:25.735Z,17.70
2018-06-11T12:51:54.276Z,16.83
2018-06-11T12:54:22.833Z,14.87
2018-06-11T12:56:51.421Z,17.37
2018-06-11T12:59:19.958Z,13.73
2018-06-11T13:01:48.161Z,20.97
2018-06-11T13:04:16.727Z,24.67
2018-06-11T13:06:45.355Z,11.30
2018-06-11T13:09:13.942Z,17.67
2018-06-11T13:11:42.488Z,11.73
2018-06-11T13:14:11.034Z,19.73
2018-06-11T13:16:39.583Z,17.50
2018-06-11T13:19:08.156Z,11.20
2018-06-11T13:21:36.687Z,21.47
2018-06-11T13:24:04.939Z,19.73
2018-06-11T13:26:33.480Z,13.03
2018-06-11T13:29:02.044Z,18.80
2018-06-11T13:31:30.578Z,8.40
2018-06-11T13:33:59.129Z,10.57
2018-06-11T13:36:27.693Z,14.03
2018-06-11T13:38:56.242Z,19.37
2018-06-11T13:41:24.849Z,16.23
2018-06-11T13:43:53.417Z,16.60
2018-06-11T13:46:22.069Z,27.27
2018-06-11T13:48:50.618Z,20.77
2018-06-11T13:51:19.221Z,12.00
2018-06-11T13:53:47.786Z,11.33
2018-06-11T13:56:16.319Z,16.80
2018-06-11T13:58:44.856Z,21.33
2018-06-11T14:01:13.065Z,18.83
2018-06-11T14:03:41.628Z,14.37
2018-06-11T14:06:10.174Z,12.17
2018-06-11T14:08:38.816Z,15.40
2018-06-11T14:11:07.367Z,14.87
2018-06-11T14:13:35.917Z,22.80
2018-06-11T14:16:04.471Z,16.13
2018-06-11T14:18:33.017Z,19.57
2018-06-11T14:21:01.574Z,18.33
2018-06-11T14:23:30.105Z,17.73
2018-06-11T14:25:58.656Z,19.57
2018-06-11T14:28:27.194Z,16.47
2018-06-11T14:30:56.102Z,23.27
2018-06-11T14:33:24.636Z,14.70
2018-06-11T14:35:54.208Z,17.53
2018-06-11T14:38:22.756Z,10.27
2018-06-11T14:40:51.315Z,12.37
2018-06-11T14:43:19.842Z,19.20
2018-06-11T14:45:48.550Z,17.40
2018-06-11T14:48:17.094Z,15.67
2018-06-11T14:50:45.668Z,11.53
2018-06-11T14:53:14.213Z,13.60
2018-06-11T14:55:43.447Z,11.57
2018-06-11T14:58:12.137Z,14.87
2018-06-11T15:00:40.571Z,16.20
2018-06-11T15:03:09.634Z,12.10
2018-06-11T15:05:38.553Z,13.90
2018-06-11T15:08:07.414Z,20.73
2018-06-11T15:10:36.084Z,11.87
2018-06-11T15:13:04.626Z,12.43
2018-06-11T15:15:33.228Z,11.83
2018-06-11T15:18:01.934Z,17.80
2018-06-11T15:20:30.742Z,16.00
2018-06-11T15:22:59.446Z,17.20
2018-06-11T15:25:28.879Z,15.40
2018-06-11T15:27:57.410Z,13.77
2018-06-11T15:30:26.049Z,16.87
2018-06-11T15:32:54.989Z,17.13
2018-06-11T15:35:23.540Z,17.67
2018-06-11T15:37:52.344Z,14.90
2018-06-11T15:40:21.352Z,9.43
2018-06-11T15:42:49.969Z,18.80
2018-06-11T15:45:18.777Z,15.07
2018-06-11T15:47:47.398Z,14.77
2018-06-11T15:50:16.350Z,18.23
2018-06-11T15:52:44.862Z,17.13
2018-06-11T15:55:13.177Z,21.40
2018-06-11T15:57:41.810Z,23.00
2018-06-11T16:00:10.357Z,13.20
2018-06-11T16:02:39.149Z,21.03
2018-06-11T16:05:07.943Z,21.93
2018-06-11T16:07:36.686Z,14.90
2018-06-11T16:10:05.257Z,16.23
2018-06-11T16:12:35.101Z,28.20
2018-06-11T16:15:03.705Z,13.57
2018-06-11T16:17:32.298Z,15.53
2018-06-11T16:20:01.002Z,16.63
2018-06-11T16:22:29.574Z,24.33
2018-06-11T16:24:58.178Z,16.47
2018-06-11T16:27:26.565Z,15.00
2018-06-11T16:29:55.113Z,22.90
2018-06-11T16:32:23.675Z,15.47
2018-06-11T16:34:52.202Z,17.30
2018-06-11T16:37:20.763Z,21.87
2018-06-11T16:39:49.294Z,13.83
2018-06-11T16:42:17.922Z,19.23
2018-06-11T16:44:46.471Z,13.17
2018-06-11T16:47:15.034Z,12.93
2018-06-11T16:49:43.577Z,12.13
2018-06-11T16:52:12.161Z,14.47
2018-06-11T16:54:40.729Z,32.93
2018-06-11T16:57:09.278Z,23.80
2018-06-11T16:59:38.162Z,18.97
2018-06-11T17:02:06.958Z,24.80
2018-06-11T17:04:35.500Z,21.17
2018-06-11T17:07:04.066Z,25.27
2018-06-11T17:09:33.155Z,30.00
2018-06-11T17:12:01.852Z,17.33
2018-06-11T17:14:30.389Z,26.93
2018-06-11T17:16:59.001Z,21.77
2018-06-11T17:19:28.007Z,21.80
2018-06-11T17:21:56.620Z,13.30
2018-06-11T17:24:25.308Z,15.37
2018-06-11T17:26:53.880Z,14.10
2018-06-11T17:29:22.403Z,17.43
2018-06-11T17:31:50.792Z,15.73
2018-06-11T17:34:19.307Z,12.53
2018-06-11T17:36:47.920Z,12.77
2018-06-11T17:39:16.462Z,12.07
2018-06-11T17:41:44.991Z,7.87
2018-06-11T17:44:13.571Z,13.43
2018-06-11T17:46:42.134Z,13.40
2018-06-11T17:49:10.674Z,16.23
2018-06-11T17:51:39.411Z,15.03
2018-06-11T17:54:09.211Z,21.37
2018-06-11T17:56:37.761Z,12.87
2018-06-11T17:59:06.331Z,17.10
2018-06-11T18:01:34.877Z,12.43
2018-06-11T18:04:03.568Z,15.67
2018-06-11T18:06:32.083Z,17.00
2018-06-11T18:09:00.299Z,17.47
2018-06-11T18:11:28.827Z,8.00
2018-06-11T18:13:57.373Z,13.43
2018-06-11T18:16:25.914Z,20.20
2018-06-11T18:18:55.097Z,8.67
2018-06-11T18:21:23.656Z,17.53
2018-06-11T18:23:52.233Z,16.47
2018-06-11T18:26:20.781Z,13.10
2018-06-11T18:28:49.343Z,11.90
2018-06-11T18:31:17.567Z,21.67
2018-06-11T18:33:46.146Z,14.20
2018-06-11T18:36:14.673Z,12.50
2018-06-11T18:38:43.235Z,14.83
2018-06-11T18:41:11.767Z,12.77
2018-06-11T18:43:40.389Z,13.50
2018-06-11T18:46:09.073Z,16.70
2018-06-11T18:48:37.635Z,11.90
2018-06-11T18:51:06.203Z,12.00
2018-06-11T18:53:34.759Z,14.10
2018-06-11T18:56:03.302Z,12.70
2018-06-11T18:58:31.871Z,10.43
2018-06-11T19:01:00.423Z,10.00
2018-06-11T19:03:29.099Z,16.50
2018-06-11T19:05:57.774Z,10.63
2018-06-11T19:08:26.351Z,13.10
2018-06-11T19:10:54.874Z,11.10
2018-06-11T19:13:23.462Z,10.40
2018-06-11T19:15:51.974Z,14.03
2018-06-11T19:18:20.519Z,9.80
2018-06-11T19:20:49.085Z,9.63
2018-06-11T19:23:17.622Z,9.73
2018-06-11T19:25:46.189Z,11.60
2018-06-11T19:28:14.734Z,7.63
2018-06-11T19:30:43.307Z,8.70
2018-06-11T19:33:11.861Z,10.33
2018-06-11T19:35:40.415Z,9.53
2018-06-11T19:38:08.935Z,12.70
2018-06-11T19:40:37.661Z,7.10
2018-06-11T19:43:06.385Z,7.43
2018-06-11T19:45:34.949Z,7.80
2018-06-11T19:48:03.494Z,7.60
2018-06-11T19:50:32.069Z,8.23
2018-06-11T19:53:00.609Z,7.97
2018-06-11T19:55:28.837Z,10.70
2018-06-11T19:57:57.364Z,6.10
2018-06-11T20:00:25.973Z,9.90
2018-06-11T20:02:54.562Z,7.10
2018-06-11T20:05:23.140Z,5.77
2018-06-11T20:07:51.664Z,10.90
2018-06-11T20:10:20.235Z,9.50
2018-06-11T20:12:48.782Z,6.70
2018-06-11T20:15:17.342Z,8.30
2018-06-11T20:17:45.853Z,8.70
2018-06-11T20:20:14.399Z,15.57
2018-06-11T20:22:42.931Z,6.77
2018-06-11T20:25:11.512Z,8.50
2018-06-11T20:27:40.159Z,16.20
2018-06-11T20:30:09.089Z,10.87
2018-06-11T20:32:37.674Z,9.83
2018-06-11T20:35:06.220Z,6.90
2018-06-11T20:37:34.781Z,8.43
2018-06-11T20:40:03.414Z,11.70
2018-06-11T20:42:32.818Z,8.70
2018-06-11T20:45:01.355Z,9.53
2018-06-11T20:47:29.904Z,15.83
2018-06-11T20:49:58.584Z,17.37
2018-06-11T20:52:27.168Z,14.87
2018-06-11T20:54:55.737Z,10.37
2018-06-11T20:57:23.947Z,9.33
2018-06-11T20:59:52.515Z,12.63
2018-06-11T21:02:21.098Z,10.83
2018-06-11T21:04:49.643Z,10.07
2018-06-11T21:07:18.213Z,7.23
2018-06-11T21:09:46.733Z,9.13
2018-06-11T21:12:15.019Z,8.37
2018-06-11T21:14:43.590Z,11.53
2018-06-11T21:17:12.154Z,9.93
2018-06-11T21:19:40.672Z,12.70
2018-06-11T21:22:09.218Z,13.80
2018-06-11T21:24:37.729Z,7.93
2018-06-11T21:27:06.469Z,10.60
2018-06-11T21:29:35.010Z,12.13
2018-06-11T21:32:03.581Z,7.40
2018-06-11T21:34:31.795Z,10.70
2018-06-11T21:37:00.389Z,9.80
2018-06-11T21:39:29.061Z,6.50
2018-06-11T21:41:57.735Z,8.47
2018-06-11T21:44:26.246Z,7.33
2018-06-11T21:46:54.800Z,7.23
2018-06-11T21:49:23.349Z,15.70
2018-06-11T21:51:51.951Z,23.30
2018-06-11T21:54:20.477Z,20.83
2018-06-11T21:56:49.070Z,21.07
2018-06-11T21:59:17.598Z,25.83
2018-06-11T22:01:46.153Z,33.33
2018-06-11T22:04:14.691Z,24.90
2018-06-11T22:06:43.241Z,33.20
2018-06-11T22:09:12.459Z,21.17
2018-06-11T22:11:41.636Z,26.10
2018-06-11T22:14:10.267Z,47.17
2018-06-11T22:16:38.818Z,27.00
2018-06-11T22:19:07.350Z,24.10
2018-06-11T22:21:35.912Z,12.10
2018-06-11T22:24:04.472Z,14.67
2018-06-11T22:26:33.019Z,9.03
2018-06-11T22:29:01.565Z,14.60
2018-06-11T22:31:30.132Z,27.27
2018-06-11T22:33:58.676Z,13.13
2018-06-11T22:36:27.217Z,7.80
2018-06-11T22:38:55.857Z,11.33
2018-06-11T22:41:24.380Z,6.30
2018-06-11T22:43:52.902Z,9.30
2018-06-11T22:46:21.508Z,12.40
2018-06-11T22:48:50.653Z,6.97
2018-06-11T22:51:19.306Z,7.47
2018-06-11T22:53:47.839Z,7.87
2018-06-11T22:56:16.424Z,6.47
2018-06-11T22:58:44.954Z,6.17
2018-06-11T23:01:13.473Z,17.87
2018-06-11T23:03:42.054Z,8.57
2018-06-11T23:06:10.719Z,8.80
2018-06-11T23:08:39.269Z,7.80
2018-06-11T23:11:07.793Z,10.00
2018-06-11T23:13:36.357Z,8.07
2018-06-11T23:16:04.894Z,6.37
2018-06-11T23:18:33.485Z,7.07
2018-06-11T23:21:02.020Z,2.60
2018-06-11T23:23:30.600Z,6.80
2018-06-11T23:25:59.110Z,6.47
2018-06-11T23:28:27.662Z,5.63
2018-06-11T23:30:56.261Z,7.97
2018-06-11T23:33:24.827Z,8.13
2018-06-11T23:35:53.385Z,8.40
2018-06-11T23:38:21.937Z,5.90
2018-06-11T23:40:50.474Z,6.97
2018-06-11T23:43:19.046Z,4.63
2018-06-11T23:45:47.576Z,3.67
2018-06-11T23:48:16.131Z,4.50
2018-06-11T23:50:44.713Z,6.00
2018-06-11T23:53:14.261Z,2.30
2018-06-11T23:55:42.868Z,9.47
2018-06-11T23:58:11.438Z,9.50
